KDLO

Delano Municipal Airport

Delano, California, USA
METAR KDLO 241215Z AUTO 15003KT 10SM CLR M03/M07 A3041 RMK AO2 T10301067
Observed Flight Rules
Feb-24 @ 12:15 UTC (7 minutes ago) Visual Flight Rules
Wind Visibility Clouds
150° at 3 knots 10 miles
  • Clear skies
Temperatures Readings
Current -3°C / 27°F
Dewpoint -7°C / 19°F
Humidity 74%
Altimeter 30.41" Hg
Pressure 1030 hPa
Elevation 96
METAR KDLO 241215Z AUTO 15003KT 10SM CLR M03/M07 A3041 RMK AO2 T10301067
Observed Flight Rules
Feb-24 @ 12:15 UTC
(7 minutes ago)
VFR
Wind Visibility
150° at 3 knots 10 miles
Clouds
  • Clear skies
Temperature Dewpoint
-3°C / 27°F -7°C / 19°F
Humidity Altimeter Pressure
74% 30.41" Hg 1030 hPa